Time;durP1;ratioP1;P1;durP2;ratioP2;P2;SDS_P1;SDS_P2;PMS_P1;PMS_P2;Temp;Humidity;BMP_temperature;BMP_pressure;BME280_temperature;BME280_humidity;BME280_pressure;Samples;Min_cycle;Max_cycle;Signal;HPM_P1;HPM_P2
2021/04/27 00:01:42;;;;;;;9.03;5.80;;;;;;;6.67;67.60;100553.42;1658128;84;21319;-62
2021/04/27 00:04:15;;;;;;;6.67;4.78;;;;;;;6.70;67.69;100550.16;1650865;84;21237;-61
2021/04/27 00:06:48;;;;;;;6.75;5.40;;;;;;;6.71;67.84;100551.00;1649709;84;21288;-61
2021/04/27 00:09:21;;;;;;;6.60;4.80;;;;;;;6.68;67.95;100553.33;1656733;85;21366;-63
2021/04/27 00:11:54;;;;;;;6.90;5.15;;;;;;;6.65;67.91;100560.03;1662124;84;21876;-61
2021/04/27 00:14:27;;;;;;;6.47;4.60;;;;;;;6.61;67.94;100562.95;1659758;84;21308;-62
2021/04/27 00:17:00;;;;;;;5.65;4.47;;;;;;;6.57;68.09;100573.17;1654004;85;21293;-65
2021/04/27 00:19:33;;;;;;;;;;;;;;;6.56;68.22;100574.13;1678402;85;21769;-61
2021/04/27 00:22:06;;;;;;;4.62;3.20;;;;;;;6.55;67.88;100573.75;1672553;84;20236;-62
2021/04/27 00:24:40;;;;;;;3.73;2.87;;;;;;;6.48;67.84;100579.84;1671335;85;21709;-61
2021/04/27 00:27:13;;;;;;;3.27;2.72;;;;;;;6.46;67.83;100586.91;1661924;85;21559;-62
2021/04/27 00:29:46;;;;;;;5.10;3.17;;;;;;;6.46;67.82;100586.08;1677074;85;21314;-61
2021/04/27 00:32:19;;;;;;;3.17;2.87;;;;;;;6.45;67.74;100589.14;1661934;85;21345;-61
2021/04/27 00:34:52;;;;;;;3.67;2.80;;;;;;;6.43;67.78;100589.71;1644260;84;21301;-61
2021/04/27 00:37:25;;;;;;;3.60;2.92;;;;;;;6.42;67.71;100596.33;1654304;85;21304;-61
2021/04/27 00:39:58;;;;;;;2.67;2.47;;;;;;;6.41;67.69;100598.55;1658932;85;21805;-61
2021/04/27 00:42:38;;;;;;;3.08;2.77;;;;;;;6.42;67.62;100612.77;1666847;84;21274;-62
2021/04/27 00:45:12;;;;;;;3.35;3.02;;;;;;;6.42;67.44;100609.33;1657590;84;21300;-61
2021/04/27 00:47:45;;;;;;;3.90;3.50;;;;;;;6.42;67.32;100614.53;1667705;84;21198;-62
2021/04/27 00:50:25;;;;;;;3.33;3.02;;;;;;;6.39;67.17;100611.66;1650785;84;21975;-61
2021/04/27 00:52:58;;;;;;;3.50;3.20;;;;;;;6.37;66.79;100618.73;1661017;85;21314;-63
2021/04/27 00:55:32;;;;;;;4.50;3.95;;;;;;;6.34;66.63;100617.63;1672560;85;21406;-61
2021/04/27 00:58:05;;;;;;;4.00;3.47;;;;;;;6.35;66.58;100626.27;1659725;85;21297;-62
2021/04/27 01:00:40;;;;;;;6.25;4.37;;;;;;;6.33;66.63;100632.85;1664922;84;21211;-61
2021/04/27 01:03:13;;;;;;;4.37;3.70;;;;;;;6.33;66.50;100630.74;1653263;85;21734;-61
2021/04/27 01:05:46;;;;;;;6.78;4.33;;;;;;;6.30;66.45;100628.33;1669107;85;21373;-62
2021/04/27 01:08:24;;;;;;;3.33;3.00;;;;;;;6.27;66.52;100630.66;1653569;84;21383;-65
2021/04/27 01:11:31;;;;;;;3.95;3.37;;;;;;;6.26;66.49;100630.28;1676913;85;21282;-61
2021/04/27 01:14:16;;;;;;;3.40;3.10;;;;;;;6.25;66.53;100626.03;1657884;85;21305;-63
2021/04/27 01:16:53;;;;;;;4.50;3.72;;;;;;;6.25;66.22;100633.84;1668519;85;21888;-62
2021/04/27 01:19:47;;;;;;;3.60;3.27;;;;;;;6.24;66.19;100639.11;1661791;85;21339;-62
2021/04/27 01:22:23;;;;;;;4.37;3.67;;;;;;;6.19;66.11;100639.41;1662117;85;21190;-61
2021/04/27 01:24:57;;;;;;;4.83;3.77;;;;;;;6.19;66.21;100643.77;1669644;85;21360;-64
2021/04/27 01:27:30;;;;;;;3.77;3.37;;;;;;;6.19;66.30;100648.52;1666443;84;21379;-61
2021/04/27 01:30:04;;;;;;;3.43;3.00;;;;;;;6.19;66.36;100653.71;1667057;84;21198;-63
2021/04/27 01:32:38;;;;;;;3.45;2.77;;;;;;;6.22;66.30;100653.52;1661428;84;21892;-62
2021/04/27 01:35:12;;;;;;;5.97;3.10;;;;;;;6.23;66.09;100663.00;1662212;84;21179;-63
2021/04/27 01:37:56;;;;;;;2.98;2.50;;;;;;;6.23;66.09;100669.50;1657887;85;21361;-63
2021/04/27 01:40:31;;;;;;;5.30;3.00;;;;;;;6.25;66.04;100670.23;1650974;85;21360;-62
2021/04/27 01:43:04;;;;;;;3.47;3.08;;;;;;;6.27;65.86;100671.42;1656264;84;21332;-61
2021/04/27 01:45:38;;;;;;;4.90;3.52;;;;;;;6.28;65.82;100676.52;1675992;85;21314;-61
2021/04/27 01:48:11;;;;;;;3.40;3.05;;;;;;;6.27;65.69;100674.02;1668802;84;21788;-61
2021/04/27 01:50:45;;;;;;;4.15;2.77;;;;;;;6.27;65.63;100679.22;1631276;84;21840;-61
2021/04/27 01:53:38;;;;;;;2.92;2.50;;;;;;;6.23;65.46;100676.46;1610554;88;21308;-60
2021/04/27 01:56:11;;;;;;;3.85;2.72;;;;;;;6.22;65.50;100681.28;1677479;84;21720;-60
2021/04/27 01:58:43;;;;;;;3.08;2.65;;;;;;;6.23;65.51;100689.46;1693646;84;21244;-61
2021/04/27 02:01:18;;;;;;;3.67;2.72;;;;;;;6.21;65.48;100688.23;1674102;84;21295;-62
2021/04/27 02:03:51;;;;;;;;;;;;;;;6.21;65.55;100690.03;1681694;84;21810;-61
2021/04/27 02:06:40;;;;;;;3.25;2.55;;;;;;;6.21;65.67;100701.23;1601825;87;20341;-60
2021/04/27 02:09:14;;;;;;;3.80;2.77;;;;;;;6.19;65.82;100698.36;1661745;83;21284;-64
2021/04/27 02:11:51;;;;;;;4.55;2.50;;;;;;;6.19;65.71;100696.61;1689791;83;21711;-62
2021/04/27 02:14:27;;;;;;;3.45;2.90;;;;;;;6.20;65.72;100696.98;1693135;83;21324;-62
2021/04/27 02:17:32;;;;;;;2.98;2.40;;;;;;;6.20;65.52;100703.95;1697474;84;21296;-60
2021/04/27 02:20:07;;;;;;;3.50;2.58;;;;;;;6.18;65.42;100701.91;1691279;83;21335;-61
2021/04/27 02:22:58;;;;;;;3.17;2.50;;;;;;;6.15;65.54;100708.14;1688227;83;21296;-61
2021/04/27 02:25:34;;;;;;;3.42;2.60;;;;;;;6.15;65.54;100701.64;1674052;84;21709;-61
2021/04/27 02:28:07;;;;;;;4.08;2.60;;;;;;;6.15;65.44;100709.90;1682490;84;21346;-60
2021/04/27 02:30:40;;;;;;;4.05;2.50;;;;;;;6.16;65.61;100710.28;1669498;84;21371;-61
2021/04/27 02:33:16;;;;;;;2.30;1.97;;;;;;;6.17;65.58;100718.43;1687469;83;21275;-61
2021/04/27 02:35:49;;;;;;;3.75;2.22;;;;;;;6.18;65.34;100724.85;1682605;84;21295;-61
2021/04/27 02:38:24;;;;;;;2.45;2.00;;;;;;;6.17;64.87;100716.67;1691372;83;21271;-65
2021/04/27 02:40:58;;;;;;;3.00;2.45;;;;;;;6.13;64.40;100732.10;1676499;84;21280;-66
2021/04/27 02:43:33;;;;;;;3.55;2.22;;;;;;;6.07;64.27;100733.77;1693852;83;21691;-67
2021/04/27 02:46:06;;;;;;;2.10;1.90;;;;;;;6.02;64.19;100727.56;1689024;83;21182;-68
2021/04/27 02:48:42;;;;;;;4.28;2.33;;;;;;;5.96;63.96;100737.52;1688699;84;21323;-68
2021/04/27 02:51:17;;;;;;;3.05;1.98;;;;;;;5.87;63.98;100739.39;1693526;84;21228;-66
2021/04/27 02:53:52;;;;;;;3.08;2.08;;;;;;;5.81;64.09;100739.72;1698700;83;21855;-67
2021/04/27 02:56:25;;;;;;;1.90;1.70;;;;;;;5.78;64.30;100746.42;1685878;84;21397;-67
2021/04/27 02:58:57;;;;;;;3.67;2.02;;;;;;;5.75;64.15;100751.80;1667890;84;21811;-65
2021/04/27 03:01:31;;;;;;;4.65;2.22;;;;;;;5.69;64.17;100751.69;1680601;84;21220;-66
2021/04/27 03:04:07;;;;;;;3.30;2.25;;;;;;;5.65;64.25;100763.20;1677234;84;21204;-67
2021/04/27 03:06:41;;;;;;;4.72;2.45;;;;;;;5.62;64.18;100756.05;1679461;83;21331;-67
2021/04/27 03:09:16;;;;;;;4.58;2.20;;;;;;;5.58;64.11;100763.20;1683318;84;21287;-68
2021/04/27 03:11:51;;;;;;;2.35;1.80;;;;;;;5.53;64.18;100766.53;1686158;84;21299;-66
2021/04/27 03:14:24;;;;;;;3.17;1.73;;;;;;;5.48;64.36;100770.33;1680240;83;21243;-72
2021/04/27 03:16:57;;;;;;;;;;;;;;;5.47;64.48;100777.27;1704222;84;21855;-68
2021/04/27 03:19:30;;;;;;;4.12;2.30;;;;;;;5.57;64.61;100789.25;1702188;83;20264;-67
2021/04/27 03:22:20;;;;;;;4.50;1.87;;;;;;;5.76;64.47;100791.95;1706748;83;21277;-68
2021/04/27 03:24:53;;;;;;;3.83;2.55;;;;;;;6.05;63.98;100792.36;1689721;84;21197;-68
2021/04/27 03:27:27;;;;;;;;;;;;;;;6.37;63.43;100799.92;1691179;83;21227;-70
2021/04/27 03:30:01;;;;;;;4.33;2.10;;;;;;;6.65;62.52;100801.14;1673117;84;20300;-69
2021/04/27 03:32:35;;;;;;;2.92;2.52;;;;;;;6.87;61.88;100801.45;1667576;84;21201;-68
2021/04/27 03:35:10;;;;;;;3.12;2.00;;;;;;;7.05;61.10;100811.95;1671593;84;21858;-67
2021/04/27 03:37:43;;;;;;;2.72;2.00;;;;;;;7.19;60.26;100823.59;1687968;84;21862;-69
2021/04/27 03:40:16;;;;;;;5.55;3.35;;;;;;;7.35;59.71;100821.67;1677971;83;21858;-70
2021/04/27 03:42:49;;;;;;;29.00;15.57;;;;;;;8.14;58.17;100837.11;1690251;84;21233;-70
2021/04/27 03:45:35;;;;;;;295.60;111.37;;;;;;;8.14;58.17;100837.11;1687505;83;21582;-71
2021/04/27 03:47:58;;;;;;;88.03;39.23;;;;;;;8.53;57.51;100842.62;1680509;84;21830;-70
2021/04/27 03:50:33;;;;;;;34.58;15.40;;;;;;;9.07;56.65;100839.97;1683474;83;21833;-73
2021/04/27 03:53:08;;;;;;;27.93;12.55;;;;;;;9.92;55.21;100842.67;1674650;84;21283;-72
2021/04/27 03:55:42;;;;;;;10.85;5.65;;;;;;;10.80;53.11;100845.25;1695888;84;21275;-70
2021/04/27 03:58:16;;;;;;;8.33;5.28;;;;;;;11.57;51.16;100851.13;1694506;84;21331;-72
2021/04/27 04:00:49;;;;;;;40.92;22.93;;;;;;;12.34;49.22;100852.40;1690681;83;21237;-72
2021/04/27 04:03:23;;;;;;;3.98;2.80;;;;;;;13.09;47.38;100849.25;1699299;83;21201;-72
2021/04/27 04:05:57;;;;;;;5.47;3.23;;;;;;;13.73;45.26;100853.45;1686077;83;21277;-73
2021/04/27 04:08:35;;;;;;;5.55;3.22;;;;;;;14.34;43.50;100859.08;1669966;83;21184;-72
2021/04/27 04:11:08;;;;;;;4.08;2.42;;;;;;;14.95;41.98;100852.72;1693573;83;21348;-73
2021/04/27 04:13:41;;;;;;;1.97;1.57;;;;;;;16.12;40.21;100843.92;1695383;83;21276;-73
2021/04/27 04:16:15;;;;;;;5.75;1.70;;;;;;;16.12;40.21;100843.92;1701974;83;21600;-72
2021/04/27 04:18:49;;;;;;;9.55;3.67;;;;;;;16.68;38.84;100842.85;1675704;84;21172;-73
2021/04/27 04:21:25;;;;;;;7.22;3.00;;;;;;;17.26;37.16;100839.31;1689719;82;21339;-70
2021/04/27 04:24:00;;;;;;;5.37;2.77;;;;;;;17.60;36.04;100847.11;1687374;84;21343;-73
2021/04/27 04:26:33;;;;;;;1.40;1.30;;;;;;;17.86;35.44;100845.92;1700169;83;21866;-70
2021/04/27 04:29:29;;;;;;;5.10;2.00;;;;;;;18.04;35.06;100846.53;1678667;84;21307;-72
2021/04/27 04:31:59;;;;;;;3.40;1.82;;;;;;;18.06;34.37;100853.81;1574272;86;21367;-73
2021/04/27 04:34:49;;;;;;;2.20;2.00;;;;;;;18.42;33.74;100856.00;1568527;90;21391;-70
2021/04/27 04:37:41;;;;;;;2.10;1.90;;;;;;;18.93;33.40;100862.58;1681271;83;21786;-69
2021/04/27 04:40:32;;;;;;;2.15;1.72;;;;;;;19.42;32.27;100859.43;1656390;83;21299;-72
2021/04/27 04:43:25;;;;;;;10.80;6.03;;;;;;;19.88;31.34;100862.00;1679584;83;21319;-72
2021/04/27 04:46:16;;;;;;;3.90;2.75;;;;;;;20.24;30.77;100861.66;1669804;84;21283;-75
2021/04/27 04:49:01;;;;;;;4.33;1.90;;;;;;;20.61;30.28;100850.87;1671843;84;21193;-77
2021/04/27 04:51:35;;;;;;;3.27;1.98;;;;;;;21.01;29.73;100850.83;1653830;83;21480;-71
2021/04/27 04:54:13;;;;;;;3.15;1.80;;;;;;;21.42;28.72;100847.85;1676588;83;21271;-66
2021/04/27 04:56:46;;;;;;;9.35;5.45;;;;;;;21.85;28.31;100843.83;1697284;82;21299;-70
2021/04/27 04:59:23;;;;;;;2.65;1.75;;;;;;;22.24;27.70;100849.88;1674326;82;21913;-65
2021/04/27 05:01:57;;;;;;;2.58;1.67;;;;;;;22.61;27.19;100851.66;1678930;82;21766;-66
2021/04/27 05:04:47;;;;;;;4.67;3.62;;;;;;;;;;1691850;82;21312;-65
2021/04/27 05:07:44;;;;;;;2.45;1.70;;;;;;;23.26;25.96;100842.95;1683333;82;21267;-69
2021/04/27 05:10:25;;;;;;;3.70;1.95;;;;;;;23.51;25.70;100844.55;1637095;82;21283;-68
2021/04/27 05:13:00;;;;;;;2.62;1.70;;;;;;;23.79;25.25;100850.48;1681600;82;21322;-70
2021/04/27 05:15:32;;;;;;;2.90;1.95;;;;;;;24.07;24.51;100855.64;1680271;83;21249;-69
2021/04/27 05:18:07;;;;;;;2.47;1.30;;;;;;;24.23;24.15;100855.69;1691549;82;21362;-68
2021/04/27 05:20:41;;;;;;;1.98;1.70;;;;;;;24.38;23.93;100861.63;1664795;83;21240;-69
2021/04/27 05:23:14;;;;;;;2.05;1.80;;;;;;;24.51;23.34;100863.72;1686466;82;21204;-63
2021/04/27 05:25:50;;;;;;;3.00;2.02;;;;;;;24.66;23.47;100862.95;1691467;82;21392;-66
2021/04/27 05:28:23;;;;;;;3.35;2.30;;;;;;;24.88;22.91;100852.78;1681863;83;21397;-70
2021/04/27 05:30:56;;;;;;;2.52;1.92;;;;;;;25.05;22.21;100851.75;1691047;83;21197;-67
2021/04/27 05:33:29;;;;;;;2.35;1.82;;;;;;;25.26;22.26;100860.27;1691876;83;21336;-66
2021/04/27 05:36:05;;;;;;;3.17;1.70;;;;;;;25.53;21.98;100862.23;1690206;82;21897;-63
2021/04/27 05:38:38;;;;;;;5.25;3.27;;;;;;;25.75;21.61;100851.42;1682934;82;21293;-69
2021/04/27 05:41:12;;;;;;;2.92;2.45;;;;;;;25.89;21.49;100858.81;1689380;83;21256;-68
2021/04/27 05:43:46;;;;;;;;;;;;;;;26.04;21.22;100861.45;1635274;85;21331;-70
2021/04/27 05:46:29;;;;;;;11.45;4.60;;;;;;;26.23;21.16;100860.97;1658151;84;20311;-68
2021/04/27 05:49:03;;;;;;;3.30;2.00;;;;;;;26.41;20.84;100858.30;1635939;84;21352;-71
2021/04/27 05:51:36;;;;;;;4.22;2.60;;;;;;;26.60;20.57;100865.30;1611177;87;21327;-67
2021/04/27 05:54:09;;;;;;;;;;;;;;;26.74;20.02;100869.45;1668905;85;21915;-67
2021/04/27 05:56:42;;;;;;;3.62;1.95;;;;;;;26.70;20.23;100865.55;1653945;84;20743;-70
2021/04/27 05:59:15;;;;;;;2.52;1.70;;;;;;;26.73;19.62;100866.97;1668511;85;21228;-63
2021/04/27 06:01:49;;;;;;;2.00;1.70;;;;;;;26.88;19.19;100871.98;1655065;85;21261;-65
2021/04/27 06:04:22;;;;;;;5.58;2.02;;;;;;;27.01;19.16;100871.81;1671051;84;21352;-66
2021/04/27 06:06:55;;;;;;;2.20;2.00;;;;;;;27.12;19.41;100880.42;1667074;84;21348;-71
2021/04/27 06:09:28;;;;;;;;;;;;;;;27.27;18.84;100874.11;1659830;85;21213;-73
2021/04/27 06:12:00;;;;;;;9.68;4.90;;;;;;;27.44;18.67;100875.12;1672269;84;20230;-70
2021/04/27 06:14:34;;;;;;;2.77;2.08;;;;;;;27.65;18.68;100874.56;1666402;85;21370;-67
2021/04/27 06:17:07;;;;;;;7.20;4.28;;;;;;;27.84;18.24;100876.09;1660634;85;21886;-69
2021/04/27 06:19:42;;;;;;;5.33;2.65;;;;;;;27.95;17.70;100876.60;1661967;84;22112;-68
2021/04/27 06:22:14;;;;;;;;;;;;;;;27.91;18.08;100877.31;1670448;84;21339;-68
2021/04/27 06:24:47;;;;;;;2.35;1.95;;;;;;;28.06;17.73;100881.73;1657476;84;20338;-69
2021/04/27 06:27:24;;;;;;;5.25;3.33;;;;;;;28.25;17.59;100880.54;1669731;84;22057;-70
2021/04/27 06:29:58;;;;;;;7.47;3.85;;;;;;;28.45;17.52;100883.65;1656469;85;21248;-74
2021/04/27 06:32:31;;;;;;;3.05;2.10;;;;;;;28.71;17.64;100879.61;1657968;85;21346;-69
2021/04/27 06:35:08;;;;;;;2.33;1.75;;;;;;;29.02;17.28;100879.69;1668592;85;21235;-70
2021/04/27 06:37:41;;;;;;;4.83;2.80;;;;;;;28.80;17.24;100876.85;1658870;85;21224;-68
2021/04/27 06:40:15;;;;;;;6.15;3.45;;;;;;;28.61;17.10;100873.50;1670538;85;21236;-69
2021/04/27 06:42:49;;;;;;;16.48;6.42;;;;;;;28.69;17.04;100880.39;1664897;84;21248;-63
2021/04/27 06:45:22;;;;;;;3.45;2.17;;;;;;;28.22;17.24;100876.14;1668469;83;21253;-67
2021/04/27 06:47:56;;;;;;;1.72;1.60;;;;;;;27.62;17.22;100883.60;1665253;85;21304;-68
2021/04/27 06:50:30;;;;;;;2.67;1.98;;;;;;;27.45;17.44;100875.91;1670901;84;21248;-67
2021/04/27 06:53:04;;;;;;;4.03;1.70;;;;;;;27.71;17.33;100876.82;1659380;83;21323;-66
2021/04/27 06:55:40;;;;;;;3.67;1.52;;;;;;;28.06;16.76;100879.04;1675726;83;21299;-66
2021/04/27 06:58:20;;;;;;;28.80;10.15;;;;;;;27.98;16.46;100877.48;1667533;83;22029;-63
2021/04/27 07:00:55;;;;;;;22.32;8.58;;;;;;;27.97;16.81;100885.26;1660620;84;21343;-67
2021/04/27 07:03:28;;;;;;;7.08;3.00;;;;;;;28.37;16.23;100880.52;1651925;84;21550;-66
2021/04/27 07:06:03;;;;;;;2.85;1.65;;;;;;;28.59;15.64;100882.35;1667832;84;21362;-72
2021/04/27 07:08:37;;;;;;;6.25;1.77;;;;;;;28.64;15.65;100890.54;1674558;84;21471;-73
2021/04/27 07:11:11;;;;;;;3.83;2.52;;;;;;;28.90;15.61;100883.76;1658603;85;21224;-66
2021/04/27 07:13:45;;;;;;;13.25;6.28;;;;;;;29.45;15.57;100892.06;1669673;84;21213;-67
2021/04/27 07:16:20;;;;;;;2.40;1.70;;;;;;;29.45;15.22;100888.56;1671093;84;21298;-69
2021/04/27 07:18:55;;;;;;;6.22;3.02;;;;;;;29.59;14.38;100885.27;1684383;83;21351;-65
2021/04/27 07:21:32;;;;;;;2.83;2.22;;;;;;;29.89;14.21;100887.15;1709485;83;21334;-71
2021/04/27 07:24:06;;;;;;;8.00;4.80;;;;;;;30.34;14.28;100882.11;1681358;84;21211;-67
2021/04/27 07:26:45;;;;;;;6.75;3.83;;;;;;;30.83;13.91;100878.93;1692978;84;21360;-66
2021/04/27 07:29:18;;;;;;;3.02;2.00;;;;;;;30.60;13.80;100877.30;1702243;83;21219;-64
2021/04/27 07:31:52;;;;;;;16.55;7.45;;;;;;;29.58;13.73;100875.56;1684559;83;21406;-67
2021/04/27 07:34:26;;;;;;;17.05;8.45;;;;;;;28.89;14.41;100876.75;1696706;84;21227;-65
2021/04/27 07:36:59;;;;;;;2.90;1.67;;;;;;;28.66;14.58;100874.95;1682208;84;22132;-66
2021/04/27 07:39:33;;;;;;;;;;;;;;;28.71;14.31;100864.80;1692448;83;21634;-62
2021/04/27 07:42:07;;;;;;;1.75;1.25;;;;;;;28.91;14.18;100863.84;1692375;83;20221;-63
2021/04/27 07:44:41;;;;;;;2.60;1.40;;;;;;;28.89;14.12;100866.49;1693304;83;21327;-69
2021/04/27 07:47:14;;;;;;;6.90;4.97;;;;;;;29.28;14.26;100865.08;1668696;84;21210;-70
2021/04/27 07:49:49;;;;;;;7.40;5.47;;;;;;;29.84;13.69;100856.02;1653595;84;22068;-73
2021/04/27 07:52:25;;;;;;;4.65;3.35;;;;;;;30.32;13.26;100858.56;1698130;83;21382;-69
2021/04/27 07:54:58;;;;;;;4.65;3.33;;;;;;;30.54;12.79;100860.77;1664235;83;21213;-68
2021/04/27 07:57:31;;;;;;;3.47;1.57;;;;;;;30.57;12.72;100855.66;1692624;83;21319;-65
2021/04/27 08:00:07;;;;;;;3.98;2.50;;;;;;;30.17;13.03;100859.17;1688226;83;21510;-68
2021/04/27 08:02:49;;;;;;;2.90;1.70;;;;;;;29.72;13.14;100852.58;1692456;84;21244;-67
2021/04/27 08:05:22;;;;;;;4.25;2.92;;;;;;;28.90;13.63;100858.16;1678212;84;21215;-68
2021/04/27 08:07:59;;;;;;;2.85;1.40;;;;;;;27.72;14.07;100854.26;1681521;83;21347;-66
2021/04/27 08:10:32;;;;;;;3.25;1.60;;;;;;;26.78;14.46;100860.43;1696504;83;21244;-66
2021/04/27 08:13:10;;;;;;;4.58;2.10;;;;;;;25.76;15.37;100847.71;1687935;83;21379;-67
2021/04/27 08:15:45;;;;;;;2.15;1.50;;;;;;;24.68;16.27;100868.91;1691451;84;21323;-66
2021/04/27 08:18:18;;;;;;;3.45;2.40;;;;;;;23.70;16.52;100854.92;1684294;84;21489;-66
2021/04/27 08:20:51;;;;;;;;;;;;;;;22.77;17.08;100859.30;1700383;84;21225;-66
2021/04/27 08:23:27;;;;;;;4.17;1.72;;;;;;;21.87;18.16;100864.44;1689617;84;20295;-67
2021/04/27 08:26:02;;;;;;;1.92;1.32;;;;;;;21.12;19.16;100870.81;1693382;83;21335;-69
2021/04/27 08:28:38;;;;;;;6.15;1.70;;;;;;;20.93;19.49;100864.73;1692287;83;21371;-66
2021/04/27 08:31:12;;;;;;;3.70;1.80;;;;;;;20.65;19.79;100872.13;1688952;83;21366;-66
2021/04/27 08:33:45;;;;;;;5.92;1.70;;;;;;;20.32;20.06;100876.20;1669328;83;21251;-67
2021/04/27 08:36:19;;;;;;;;;;;;;;;19.86;20.26;100871.99;1679808;83;21346;-69
2021/04/27 08:38:54;;;;;;;3.92;1.42;;;;;;;19.66;20.86;100866.86;1658568;84;20329;-69
2021/04/27 08:41:30;;;;;;;2.12;1.40;;;;;;;19.69;20.99;100866.02;1694293;83;21374;-68
2021/04/27 08:44:05;;;;;;;5.92;2.17;;;;;;;19.69;20.86;100862.03;1659216;84;21222;-72
2021/04/27 08:46:40;;;;;;;1.55;1.12;;;;;;;19.57;20.81;100863.95;1663581;83;22144;-66
2021/04/27 08:49:13;;;;;;;;;;;;;;;19.59;20.74;100857.95;1686078;83;21336;-70
2021/04/27 08:51:45;;;;;;;3.58;2.00;;;;;;;20.04;20.87;100850.70;1688004;83;20429;-67
2021/04/27 08:54:20;;;;;;;2.45;1.60;;;;;;;20.18;20.41;100857.85;1662831;84;21313;-67
2021/04/27 08:56:53;;;;;;;4.10;1.50;;;;;;;20.11;20.71;100855.61;1689005;83;21555;-65
2021/04/27 08:59:30;;;;;;;4.00;1.47;;;;;;;20.03;20.50;100853.55;1641764;85;22096;-75
2021/04/27 09:02:04;;;;;;;1.57;1.22;;;;;;;20.10;20.24;100846.00;1646175;86;21625;-69
2021/04/27 09:04:45;;;;;;;1.75;1.10;;;;;;;20.12;20.43;100845.80;1658939;85;21360;-72
2021/04/27 09:07:20;;;;;;;2.58;1.20;;;;;;;20.37;20.20;100843.73;1649064;86;22317;-67
2021/04/27 09:09:57;;;;;;;3.25;1.25;;;;;;;20.33;19.76;100845.91;1648809;85;21347;-65
2021/04/27 09:12:32;;;;;;;4.58;1.47;;;;;;;20.11;19.20;100854.77;1652592;86;21586;-73
2021/04/27 09:15:08;;;;;;;3.65;1.35;;;;;;;19.66;19.62;100851.75;1642343;86;21256;-68
2021/04/27 09:17:41;;;;;;;2.22;1.10;;;;;;;19.42;19.80;100847.98;1647706;85;22180;-73
2021/04/27 09:20:14;;;;;;;;;;;;;;;19.13;19.85;100851.32;1629430;85;22161;-73
2021/04/27 09:22:47;;;;;;;2.20;1.50;;;;;;;18.81;20.29;100856.85;1646058;85;20403;-73
2021/04/27 09:25:24;;;;;;;1.72;1.25;;;;;;;18.34;20.73;100858.70;1654450;85;22170;-73
2021/04/27 09:27:58;;;;;;;4.85;1.75;;;;;;;17.89;20.97;100863.27;1688765;83;21269;-69
2021/04/27 09:30:31;;;;;;;3.08;1.60;;;;;;;17.28;21.66;100858.49;1691159;83;21407;-70
2021/04/27 09:33:10;;;;;;;3.33;1.75;;;;;;;17.28;21.66;100858.49;1684587;83;22198;-71
2021/04/27 09:35:46;;;;;;;3.47;1.77;;;;;;;17.15;22.08;100855.48;1691704;83;21363;-74
2021/04/27 09:38:29;;;;;;;7.03;2.12;;;;;;;16.85;21.79;100866.20;1680619;84;21354;-72
2021/04/27 09:41:08;;;;;;;3.67;2.30;;;;;;;16.48;22.23;100869.69;1700562;82;21330;-72
2021/04/27 09:43:46;;;;;;;2.60;1.77;;;;;;;16.12;23.00;100871.14;1700252;83;22128;-71
2021/04/27 09:46:21;;;;;;;3.60;1.92;;;;;;;16.00;23.39;100859.19;1686902;83;22438;-72
2021/04/27 09:48:58;;;;;;;2.83;1.98;;;;;;;15.95;23.71;100860.66;1640032;86;21752;-71
2021/04/27 09:51:35;;;;;;;3.75;1.70;;;;;;;15.88;24.04;100864.39;1653961;85;21255;-70
2021/04/27 09:54:13;;;;;;;2.00;1.20;;;;;;;15.84;24.25;100849.85;1685391;83;21340;-71
2021/04/27 09:56:54;;;;;;;4.53;1.50;;;;;;;15.75;24.39;100851.27;1690105;84;21261;-71
2021/04/27 09:59:42;;;;;;;3.37;1.32;;;;;;;15.64;24.41;100852.38;1683929;84;21319;-68
2021/04/27 10:02:05;;;;;;;2.27;1.50;;;;;;;15.65;24.76;100843.94;1689828;84;21392;-72
2021/04/27 10:04:40;;;;;;;2.05;1.47;;;;;;;15.65;24.84;100851.38;1695935;83;21319;-72
2021/04/27 10:07:13;;;;;;;2.02;1.40;;;;;;;15.76;25.07;100838.42;1705030;83;21247;-74
2021/04/27 10:09:49;;;;;;;4.50;2.70;;;;;;;15.99;24.83;100838.23;1676815;83;21208;-72
2021/04/27 10:12:23;;;;;;;3.62;2.00;;;;;;;16.26;24.72;100843.33;1698618;83;21374;-71
2021/04/27 10:14:56;;;;;;;6.28;1.90;;;;;;;16.41;23.98;100839.56;1705218;83;21197;-69
2021/04/27 10:17:30;;;;;;;5.50;2.08;;;;;;;16.38;24.27;100842.55;1696151;82;21217;-72
2021/04/27 10:20:07;;;;;;;2.85;1.75;;;;;;;16.43;24.51;100849.52;1707036;82;21351;-70
2021/04/27 10:22:42;;;;;;;5.83;1.75;;;;;;;16.45;24.79;100839.12;1694953;83;21355;-68
2021/04/27 10:25:30;;;;;;;4.30;2.17;;;;;;;16.48;25.17;100832.69;1702316;83;21333;-68
2021/04/27 10:28:20;;;;;;;4.37;1.82;;;;;;;16.47;25.50;100833.17;1686821;81;21340;-70
2021/04/27 10:30:58;;;;;;;4.70;1.85;;;;;;;16.40;24.73;100825.55;1697484;82;21334;-68
2021/04/27 10:33:38;;;;;;;3.83;1.55;;;;;;;16.29;25.28;100835.06;1702534;82;21679;-71
2021/04/27 10:36:13;;;;;;;5.10;1.87;;;;;;;16.15;25.87;100839.63;1700305;83;21227;-72
2021/04/27 10:38:53;;;;;;;3.65;1.98;;;;;;;16.09;25.44;100833.66;1715918;82;21330;-72
2021/04/27 10:41:52;;;;;;;4.40;1.98;;;;;;;16.05;25.41;100832.30;1713011;82;21554;-69
2021/04/27 10:44:26;;;;;;;5.40;1.72;;;;;;;16.03;24.99;100831.15;1707895;83;21327;-69
2021/04/27 10:47:02;;;;;;;1.80;1.50;;;;;;;15.95;24.65;100825.81;1704339;83;21208;-68
2021/04/27 10:49:37;;;;;;;3.12;1.90;;;;;;;15.78;24.76;100828.53;1696611;83;21390;-75
2021/04/27 10:56:06;;;;;;;3.05;1.70;;;;;;;15.56;25.40;100823.75;1694820;83;21144;-68
2021/04/27 10:58:55;;;;;;;3.62;1.55;;;;;;;15.35;25.87;100816.16;1686941;84;21264;-62
2021/04/27 11:01:29;;;;;;;4.75;2.00;;;;;;;15.32;25.86;100819.92;1699495;84;21445;-70
2021/04/27 11:04:03;;;;;;;3.65;1.70;;;;;;;15.27;26.07;100816.91;1696030;84;21432;-71
2021/04/27 11:06:36;;;;;;;2.60;1.52;;;;;;;15.21;26.27;100804.83;1701653;84;21310;-69
2021/04/27 11:09:15;;;;;;;3.75;1.70;;;;;;;15.07;26.39;100815.92;1692174;83;21360;-67
2021/04/27 11:11:51;;;;;;;5.03;1.90;;;;;;;14.89;26.93;100813.75;1685406;84;21386;-72
2021/04/27 11:14:25;;;;;;;5.87;1.98;;;;;;;14.82;27.12;100810.89;1699953;84;21370;-75
2021/04/27 11:16:59;;;;;;;4.33;2.12;;;;;;;14.79;27.54;100808.07;1700106;84;21554;-69
2021/04/27 11:19:41;;;;;;;7.80;2.45;;;;;;;14.85;27.99;100797.42;1639671;84;22077;-67
2021/04/27 11:22:30;;;;;;;5.08;2.30;;;;;;;14.86;27.85;100805.66;1686748;84;21319;-67
2021/04/27 11:25:04;;;;;;;6.37;3.58;;;;;;;14.80;27.78;100803.16;1694211;84;21308;-68
2021/04/27 11:27:40;;;;;;;6.22;3.85;;;;;;;14.77;28.18;100803.92;1681807;83;21289;-69
2021/04/27 11:30:17;;;;;;;4.25;2.50;;;;;;;14.83;28.42;100800.70;1682985;84;21331;-69
2021/04/27 11:32:50;;;;;;;4.05;2.22;;;;;;;14.96;28.47;100796.35;1699225;84;21273;-66
2021/04/27 11:35:24;;;;;;;6.75;2.47;;;;;;;14.99;28.19;100800.84;1645794;83;21244;-66
2021/04/27 11:38:02;;;;;;;5.00;2.40;;;;;;;14.94;27.98;100797.83;1695940;84;21382;-63
2021/04/27 11:40:42;;;;;;;3.58;2.15;;;;;;;14.79;28.31;100792.73;1687394;84;21424;-69
2021/04/27 11:43:17;;;;;;;4.85;2.65;;;;;;;14.62;28.56;100799.66;1689821;84;21695;-65
2021/04/27 11:45:52;;;;;;;5.80;2.70;;;;;;;14.57;28.86;100800.58;1700395;84;21363;-72
2021/04/27 11:48:25;;;;;;;6.92;3.12;;;;;;;14.58;29.16;100801.42;1679368;84;21255;-69
2021/04/27 11:50:59;;;;;;;13.93;5.33;;;;;;;14.54;29.42;100793.00;1693365;84;22149;-74
2021/04/27 11:53:32;;;;;;;13.10;5.00;;;;;;;14.53;29.74;100790.48;1692449;84;21579;-61
2021/04/27 11:56:06;;;;;;;5.75;2.80;;;;;;;14.49;29.87;100784.70;1696088;84;21590;-63
2021/04/27 11:58:46;;;;;;;11.20;2.80;;;;;;;14.47;29.82;100793.22;1697763;84;22114;-68
2021/04/27 12:01:19;;;;;;;11.83;4.00;;;;;;;14.40;30.08;100802.69;1696453;84;21537;-65
2021/04/27 12:03:52;;;;;;;13.15;5.65;;;;;;;14.30;30.23;100806.34;1660433;84;21220;-71
2021/04/27 12:06:25;;;;;;;9.13;3.65;;;;;;;14.21;30.36;100813.29;1695950;84;21394;-63
2021/04/27 12:09:06;;;;;;;8.20;4.67;;;;;;;14.18;30.65;100811.80;1686329;84;21618;-64
2021/04/27 12:11:39;;;;;;;6.33;3.40;;;;;;;14.14;30.81;100815.69;1691295;84;21318;-68
2021/04/27 12:14:17;;;;;;;23.77;11.03;;;;;;;14.11;31.12;100816.48;1693230;84;21312;-63
2021/04/27 12:16:50;;;;;;;14.68;7.35;;;;;;;14.14;31.29;100813.05;1699089;84;21264;-68